Borden, Canada
Current Conditions -  °F | °C
As of 9:00 AM on Monday 24 Nov 2014 (Local Time) from CYQV Reporting Station
Clear Clear  
Wind Chill: -20°   Ceiling: Unl
Heat Index: -6°   Visibility: 9mi
Dew Point: -11°   Wind: 7mph
Humidity: 77%   Direction: 190°S
Pressure: 29.89"   Gusts: NA
Location:  52.4°N, 102.23°W
Report Text: CYQV 241500Z AUTO 19006KT 9SM CLR M21/M24 A2989 RMK SLP177
Loading
Personal Weather Stations






























Interactive Weather Map New forecast layout! Learn more

10-Day Weather Forecast

Advertisements
Track Severe Weather on mobile